Time;durP1;ratioP1;P1;durP2;ratioP2;P2;SDS_P1;SDS_P2;PMS_P1;PMS_P2;Temp;Humidity;BMP_temperature;BMP_pressure;BME280_temperature;BME280_humidity;BME280_pressure;Samples;Min_cycle;Max_cycle;Signal;HPM_P1;HPM_P2
2022/11/24 00:01:28;;;;;;;53.60;26.53;;;;;;;-0.09;100.00;100013.69;4981563;28;20297;-70
2022/11/24 00:03:56;;;;;;;57.47;27.40;;;;;;;-0.08;100.00;100012.00;4985792;28;20216;-70
2022/11/24 00:06:23;;;;;;;58.30;27.07;;;;;;;-0.08;100.00;100017.97;4987677;28;20647;-70
2022/11/24 00:08:50;;;;;;;57.50;26.33;;;;;;;-0.10;100.00;100011.97;4987990;28;20229;-70
2022/11/24 00:11:18;;;;;;;58.97;26.57;;;;;;;-0.14;100.00;100011.94;4988593;28;20204;-70
2022/11/24 00:13:45;;;;;;;58.67;26.10;;;;;;;-0.18;100.00;100018.72;4985758;28;20627;-70
2022/11/24 00:16:15;;;;;;;59.57;28.37;;;;;;;-0.18;100.00;100018.72;4980600;28;20232;-71
2022/11/24 00:18:43;;;;;;;60.43;27.30;;;;;;;-0.23;100.00;100012.72;4983597;28;20217;-70
2022/11/24 00:21:09;;;;;;;57.60;27.53;;;;;;;-0.26;100.00;100013.56;4985615;28;20204;-70
2022/11/24 00:23:37;;;;;;;53.00;26.03;;;;;;;-0.27;100.00;100001.56;4992687;28;20199;-70
2022/11/24 00:26:05;;;;;;;68.37;29.03;;;;;;;-0.26;100.00;100000.75;4988885;28;20194;-70
2022/11/24 00:28:33;;;;;;;60.03;27.83;;;;;;;-0.25;100.00;100001.59;4992250;28;20822;-71
2022/11/24 00:30:59;;;;;;;60.17;27.03;;;;;;;-0.28;100.00;100004.13;4986711;28;20208;-71
2022/11/24 00:33:27;;;;;;;56.93;27.83;;;;;;;-0.22;100.00;100011.88;4984606;28;20194;-69
2022/11/24 00:35:55;;;;;;;60.50;26.93;;;;;;;-0.25;100.00;100009.28;4989151;28;20307;-70
2022/11/24 00:38:22;;;;;;;63.87;28.63;;;;;;;-0.26;100.00;100012.72;4985987;28;20841;-70
2022/11/24 00:40:48;;;;;;;61.27;28.70;;;;;;;-0.25;100.00;100009.28;4994138;28;20207;-69
2022/11/24 00:43:14;;;;;;;64.63;31.03;;;;;;;-0.25;100.00;100004.16;4990644;28;20211;-70
2022/11/24 00:45:41;;;;;;;58.47;27.03;;;;;;;-0.25;100.00;100009.28;4993392;28;20200;-71
2022/11/24 00:48:08;;;;;;;63.90;28.13;;;;;;;-0.24;100.00;100011.00;4987414;28;20232;-70
2022/11/24 00:50:35;;;;;;;63.13;28.13;;;;;;;-0.23;100.00;100008.47;4993001;28;20300;-70
2022/11/24 00:53:02;;;;;;;60.80;29.37;;;;;;;-0.22;100.00;100004.19;4990529;28;20227;-70
2022/11/24 00:55:28;;;;;;;67.90;27.97;;;;;;;-0.22;100.00;100014.44;4981157;28;20586;-70
2022/11/24 00:57:55;;;;;;;54.33;26.20;;;;;;;-0.22;100.00;100014.44;4983977;28;20235;-71
2022/11/24 01:00:21;;;;;;;66.20;28.90;;;;;;;-0.19;100.00;100019.59;4989896;28;20562;-70
2022/11/24 01:02:47;;;;;;;57.90;28.97;;;;;;;-0.17;100.00;100014.50;4990850;28;20207;-71
2022/11/24 01:05:14;;;;;;;62.17;28.93;;;;;;;-0.14;100.00;100015.38;4991642;28;20205;-69
2022/11/24 01:07:42;;;;;;;60.87;29.47;;;;;;;-0.11;100.00;100029.91;4991651;28;20240;-69
2022/11/24 01:10:08;;;;;;;60.50;29.60;;;;;;;-0.12;100.00;100028.16;4994339;28;20200;-68
2022/11/24 01:12:35;;;;;;;67.23;29.90;;;;;;;-0.11;100.00;100025.63;4990439;28;20204;-70
2022/11/24 01:15:01;;;;;;;64.20;29.37;;;;;;;-0.12;100.00;100026.47;4993663;28;20209;-70
2022/11/24 01:17:28;;;;;;;67.97;31.10;;;;;;;-0.10;100.00;100023.94;4987597;28;20228;-70
2022/11/24 01:19:54;;;;;;;62.80;27.63;;;;;;;-0.10;100.00;100027.34;4993809;28;20628;-70
2022/11/24 01:22:20;;;;;;;70.83;31.73;;;;;;;-0.11;100.00;100024.78;4994962;28;20684;-70
2022/11/24 01:24:48;;;;;;;61.73;28.97;;;;;;;-0.09;100.00;100026.50;4990395;28;20208;-70
2022/11/24 01:27:14;;;;;;;70.57;31.60;;;;;;;-0.07;100.00;100029.94;4984847;28;20197;-70
2022/11/24 01:29:41;;;;;;;69.57;31.50;;;;;;;-0.08;100.00;100027.38;4995319;28;20197;-69
2022/11/24 01:32:07;;;;;;;66.33;30.00;;;;;;;-0.09;100.00;100023.06;4986148;28;20201;-70
2022/11/24 01:34:33;;;;;;;57.20;27.73;;;;;;;-0.08;100.00;100024.81;4993483;28;20673;-71
2022/11/24 01:37:00;;;;;;;70.77;31.20;;;;;;;-0.11;100.00;100022.22;4972422;28;20654;-70
2022/11/24 01:39:26;;;;;;;69.87;31.87;;;;;;;-0.13;100.00;100031.59;4994442;28;20634;-71
2022/11/24 01:41:54;;;;;;;67.57;30.17;;;;;;;-0.18;100.00;100026.41;4997743;28;20208;-71
2022/11/24 01:44:23;;;;;;;67.33;30.43;;;;;;;-0.15;100.00;100033.28;4994739;28;20692;-71
2022/11/24 01:46:54;;;;;;;66.40;30.30;;;;;;;-0.17;100.00;100030.72;4994966;28;20211;-71
2022/11/24 01:49:25;;;;;;;65.97;29.57;;;;;;;-0.16;100.00;100029.00;4991559;28;20212;-70
2022/11/24 01:51:57;;;;;;;66.03;29.57;;;;;;;-0.17;100.00;100030.72;4995353;28;20218;-71
2022/11/24 01:54:29;;;;;;;71.73;30.73;;;;;;;-0.18;100.00;100035.81;4987683;28;20201;-70
2022/11/24 01:57:02;;;;;;;70.07;29.77;;;;;;;-0.20;100.00;100046.06;4989182;28;20226;-70
2022/11/24 01:59:28;;;;;;;59.03;27.87;;;;;;;-0.24;100.00;100040.03;4989457;28;20225;-69
2022/11/24 02:01:56;;;;;;;65.07;27.93;;;;;;;-0.24;100.00;100032.34;4986084;28;20640;-69
2022/11/24 02:04:31;;;;;;;76.33;32.00;;;;;;;-0.20;100.00;100028.13;4987377;28;20201;-70
2022/11/24 02:07:00;;;;;;;61.93;28.83;;;;;;;-0.18;100.00;100034.09;4990124;28;20211;-70
2022/11/24 02:09:33;;;;;;;67.60;29.20;;;;;;;-0.18;100.00;100040.94;4993335;28;20227;-71
2022/11/24 02:12:02;;;;;;;63.83;29.40;;;;;;;-0.20;100.00;100046.91;4989457;28;20213;-70
2022/11/24 02:14:29;;;;;;;68.20;30.40;;;;;;;-0.21;100.00;100047.75;5002495;28;20266;-70
2022/11/24 02:16:55;;;;;;;69.67;31.27;;;;;;;-0.20;100.00;100051.19;4989113;28;20606;-70
2022/11/24 02:19:32;;;;;;;72.43;31.20;;;;;;;-0.18;100.00;100048.63;5001219;28;20217;-70
2022/11/24 02:21:58;;;;;;;72.57;29.80;;;;;;;-0.16;100.00;100052.06;4996759;28;20209;-71
2022/11/24 02:24:32;;;;;;;73.30;32.13;;;;;;;-0.16;100.00;100057.19;4993554;28;20196;-70
2022/11/24 02:27:00;;;;;;;67.63;28.40;;;;;;;-0.18;100.00;100067.41;4992529;28;20203;-70
2022/11/24 02:29:28;;;;;;;69.17;28.47;;;;;;;-0.20;100.00;100062.28;4992545;28;20221;-70
2022/11/24 02:32:00;;;;;;;68.90;29.20;;;;;;;-0.21;100.00;100068.25;4988758;28;20224;-70
2022/11/24 02:34:27;;;;;;;67.57;29.23;;;;;;;-0.22;100.00;100061.41;4991095;28;20202;-69
2022/11/24 02:36:53;;;;;;;62.90;30.33;;;;;;;-0.23;100.00;100063.97;4995224;28;20779;-70
2022/11/24 02:39:20;;;;;;;69.57;29.87;;;;;;;-0.26;100.00;100071.63;4985853;28;20221;-70
2022/11/24 02:41:53;;;;;;;61.43;29.80;;;;;;;-0.29;100.00;100072.44;4999777;28;20205;-70
2022/11/24 02:44:24;;;;;;;65.90;28.97;;;;;;;-0.29;100.00;100064.75;4971896;28;20218;-70
2022/11/24 02:47:01;;;;;;;63.73;29.13;;;;;;;-0.29;100.00;100072.44;4983991;28;20197;-71
2022/11/24 02:49:28;;;;;;;69.40;30.30;;;;;;;-0.29;100.00;100064.75;4986181;28;20224;-70
2022/11/24 02:51:54;;;;;;;61.57;27.87;;;;;;;-0.31;100.00;100066.47;4983376;28;20204;-71
2022/11/24 02:54:21;;;;;;;67.60;28.17;;;;;;;-0.31;100.00;100070.72;4988732;28;20200;-71
2022/11/24 02:56:47;;;;;;;67.03;28.10;;;;;;;-0.33;100.00;100078.41;4991814;28;20584;-70
2022/11/24 02:59:13;;;;;;;62.50;28.13;;;;;;;-0.35;100.00;100082.66;4987211;28;20224;-69
2022/11/24 03:01:41;;;;;;;65.67;27.13;;;;;;;-0.36;100.00;100091.16;4993329;28;20201;-70
2022/11/24 03:04:07;;;;;;;64.97;28.33;;;;;;;-0.42;100.00;100089.41;4986013;28;20228;-70
2022/11/24 03:06:34;;;;;;;66.50;27.97;;;;;;;-0.40;100.00;100089.44;4992949;28;20211;-69
2022/11/24 03:09:00;;;;;;;63.23;28.30;;;;;;;-0.43;100.00;100090.25;4984848;28;20213;-68
2022/11/24 03:11:27;;;;;;;64.83;28.73;;;;;;;-0.42;100.00;100086.84;4972723;28;20201;-71
2022/11/24 03:13:53;;;;;;;56.57;26.47;;;;;;;-0.43;100.00;100086.84;5058057;28;20215;-69
2022/11/24 03:16:19;;;;;;;59.20;28.00;;;;;;;-0.44;100.00;100092.78;4988004;28;20291;-70
2022/11/24 03:18:47;;;;;;;61.30;26.70;;;;;;;-0.45;100.00;100091.94;4990798;28;20221;-70
2022/11/24 03:21:13;;;;;;;57.27;25.80;;;;;;;-0.47;100.00;100090.22;4989313;28;20201;-70
2022/11/24 03:23:40;;;;;;;68.57;28.37;;;;;;;-0.49;100.00;100086.75;4974900;28;20205;-70
2022/11/24 03:26:08;;;;;;;57.93;27.03;;;;;;;-0.51;100.00;100080.75;4987068;28;20651;-70
2022/11/24 03:28:34;;;;;;;64.53;27.93;;;;;;;-0.52;100.00;100076.50;4993838;28;20245;-70
2022/11/24 03:31:01;;;;;;;61.87;27.90;;;;;;;-0.53;100.00;100087.59;4984549;28;20198;-70
2022/11/24 03:33:27;;;;;;;70.53;28.80;;;;;;;-0.59;100.00;100081.56;4992198;28;20201;-70
2022/11/24 03:35:55;;;;;;;78.87;30.20;;;;;;;-0.63;100.00;100078.97;4985379;28;20677;-70
2022/11/24 03:38:21;;;;;;;75.20;28.40;;;;;;;-0.66;100.00;100089.16;4984400;28;20513;-69
2022/11/24 03:40:47;;;;;;;72.57;27.83;;;;;;;-0.70;100.00;100089.94;4993922;28;20696;-70
2022/11/24 03:43:14;;;;;;;60.83;27.67;;;;;;;-0.75;100.00;100089.06;4992814;28;20207;-69
2022/11/24 03:45:40;;;;;;;65.77;27.00;;;;;;;-0.80;100.00;100094.97;4991003;28;20402;-70
2022/11/24 03:48:07;;;;;;;77.17;28.43;;;;;;;-0.81;100.00;100092.38;4989441;28;20227;-70
2022/11/24 03:50:33;;;;;;;57.00;24.23;;;;;;;-0.86;100.00;100089.78;4989751;28;20562;-70
2022/11/24 03:53:01;;;;;;;66.13;27.10;;;;;;;-0.91;100.00;100086.31;4987108;28;20204;-70
2022/11/24 03:55:27;;;;;;;60.70;26.57;;;;;;;-0.96;100.00;100090.53;4993419;28;20495;-70
2022/11/24 03:57:54;;;;;;;65.80;27.77;;;;;;;-1.00;100.00;100094.75;4987624;28;20225;-70
2022/11/24 04:00:20;;;;;;;61.77;26.60;;;;;;;-1.04;100.00;100094.69;4991767;28;20276;-70
2022/11/24 04:02:47;;;;;;;63.23;26.27;;;;;;;-1.06;100.00;100091.25;4980393;28;20209;-71
2022/11/24 04:05:14;;;;;;;67.37;26.87;;;;;;;-1.11;100.00;100092.88;4991307;28;20193;-70
2022/11/24 04:07:40;;;;;;;54.30;23.90;;;;;;;-1.19;100.00;100091.09;4987997;28;20220;-70
2022/11/24 04:10:08;;;;;;;57.30;25.97;;;;;;;-1.26;100.00;100085.88;4987432;28;20207;-70
2022/11/24 04:15:19;;;;;;;71.53;25.47;;;;;;;-1.47;100.00;100084.72;4982837;28;20197;-70
2022/11/24 04:17:47;;;;;;;83.30;27.60;;;;;;;-1.57;100.00;100090.56;4983386;28;20232;-68
2022/11/24 04:20:14;;;;;;;78.10;27.10;;;;;;;-1.64;100.00;100106.63;4991145;28;20212;-69
2022/11/24 04:22:41;;;;;;;60.40;25.93;;;;;;;-1.70;100.00;100106.56;4993711;28;20634;-68
2022/11/24 04:25:10;;;;;;;59.67;24.13;;;;;;;-1.68;100.00;100100.63;4994279;28;20277;-70
2022/11/24 04:27:37;;;;;;;60.37;22.80;;;;;;;-1.69;100.00;100100.59;4989303;28;20212;-70
2022/11/24 04:30:04;;;;;;;66.20;25.77;;;;;;;-1.76;100.00;100099.63;4998150;28;20208;-68
2022/11/24 04:32:31;;;;;;;67.93;25.77;;;;;;;-1.90;100.00;100109.63;4986811;28;20566;-70
2022/11/24 04:34:57;;;;;;;55.77;24.77;;;;;;;-1.85;100.00;100114.84;4964354;28;20204;-70
2022/11/24 04:37:24;;;;;;;82.07;28.10;;;;;;;-1.85;100.00;100118.25;4993886;28;20219;-69
2022/11/24 04:39:50;;;;;;;64.43;25.87;;;;;;;-1.83;100.00;100124.25;4969105;28;20577;-70
2022/11/24 04:42:18;;;;;;;72.80;26.97;;;;;;;-1.88;100.00;100128.44;5012228;28;20266;-70
2022/11/24 04:44:44;;;;;;;52.17;24.47;;;;;;;-1.85;100.00;100130.16;5001924;28;20266;-70
2022/11/24 04:47:15;;;;;;;62.10;25.13;;;;;;;-1.87;100.00;100131.84;4988008;28;20198;-69
2022/11/24 04:49:41;;;;;;;56.43;23.87;;;;;;;-1.92;100.00;100134.31;4992862;28;20211;-70
2022/11/24 04:52:07;;;;;;;50.27;22.33;;;;;;;-2.02;100.00;100142.66;4990389;28;20247;-71
2022/11/24 04:54:34;;;;;;;65.03;24.27;;;;;;;-2.07;100.00;100140.03;4983562;28;20261;-69
2022/11/24 04:57:00;;;;;;;52.63;22.23;;;;;;;-2.03;100.00;100148.59;4973136;28;20697;-69
2022/11/24 04:59:28;;;;;;;42.73;21.90;;;;;;;-2.09;100.00;100149.38;4985617;28;20255;-69
2022/11/24 05:01:54;;;;;;;39.80;21.23;;;;;;;-2.10;100.00;100152.75;4994354;28;20208;-69
2022/11/24 05:04:21;;;;;;;50.37;23.00;;;;;;;-2.15;100.00;100157.75;4986703;28;20194;-70
2022/11/24 05:06:47;;;;;;;55.13;23.40;;;;;;;-2.17;100.00;100151.75;4992664;28;20206;-70
2022/11/24 05:09:15;;;;;;;47.77;24.10;;;;;;;-2.23;100.00;100153.34;4979714;28;20227;-70
2022/11/24 05:11:41;;;;;;;54.60;26.20;;;;;;;-2.37;100.00;100148.84;4979054;28;20233;-70
2022/11/24 05:14:08;;;;;;;52.17;24.03;;;;;;;-2.43;100.00;100158.09;4985636;28;20229;-70
2022/11/24 05:16:36;;;;;;;54.83;26.53;;;;;;;-2.43;100.00;100153.84;4986994;28;20608;-70
2022/11/24 05:19:03;;;;;;;56.20;25.50;;;;;;;-2.41;100.00;100157.31;4983390;28;20225;-70
2022/11/24 05:21:29;;;;;;;56.83;25.53;;;;;;;-2.39;100.00;100165.84;4994912;28;20209;-69
2022/11/24 05:23:55;;;;;;;52.23;25.30;;;;;;;-2.39;100.00;100160.75;4978901;28;20205;-70
2022/11/24 05:26:22;;;;;;;52.00;23.60;;;;;;;-2.48;100.00;100175.84;4978093;28;20216;-70
2022/11/24 05:28:48;;;;;;;47.63;23.80;;;;;;;-2.51;100.00;100171.56;4977812;28;20221;-70
2022/11/24 05:31:14;;;;;;;51.97;24.13;;;;;;;-2.37;100.00;100176.09;4971880;28;20216;-70
2022/11/24 05:33:42;;;;;;;52.50;24.90;;;;;;;-2.41;100.00;100175.19;4989221;28;20201;-70
2022/11/24 05:36:51;;;;;;;52.17;24.03;;;;;;;-2.36;100.00;100177.81;4983469;28;20223;-71
2022/11/24 05:38:56;;;;;;;50.33;22.37;;;;;;;-2.35;100.00;100194.84;4977544;28;20232;-70
2022/11/24 05:41:23;;;;;;;45.57;22.13;;;;;;;-2.42;100.00;100193.03;4990925;28;20196;-69
2022/11/24 05:43:49;;;;;;;44.40;22.97;;;;;;;-2.44;100.00;100195.53;4988414;28;20207;-70
2022/11/24 05:46:15;;;;;;;49.33;22.83;;;;;;;-2.41;100.00;100189.63;4988179;28;20658;-70
2022/11/24 05:48:43;;;;;;;52.07;23.17;;;;;;;-2.48;100.00;100198.84;4986060;28;20224;-68
2022/11/24 05:51:10;;;;;;;59.53;27.43;;;;;;;-2.43;100.00;100196.38;4978306;28;20209;-71
2022/11/24 05:53:36;;;;;;;51.13;26.37;;;;;;;-2.40;100.00;100196.47;4984918;28;20437;-69
2022/11/24 05:56:02;;;;;;;64.20;27.20;;;;;;;-2.39;100.00;100200.72;4978496;28;20221;-69
2022/11/24 05:58:29;;;;;;;60.37;26.57;;;;;;;-2.41;100.00;100210.94;4986473;28;20224;-70
2022/11/24 06:00:55;;;;;;;62.47;28.67;;;;;;;-2.38;100.00;100210.13;4984817;28;20280;-71
2022/11/24 06:03:22;;;;;;;68.87;26.90;;;;;;;-2.35;100.00;100212.72;4968177;28;20193;-69
2022/11/24 06:05:50;;;;;;;54.27;25.93;;;;;;;-2.35;100.00;100215.28;4982141;28;20212;-69
2022/11/24 06:08:16;;;;;;;51.90;26.17;;;;;;;-2.44;100.00;100223.63;4967254;28;20233;-70
2022/11/24 06:10:42;;;;;;;50.20;24.73;;;;;;;-2.33;100.00;100223.84;4980837;28;20357;-69
2022/11/24 06:13:09;;;;;;;55.17;24.67;;;;;;;-2.36;100.00;100224.63;4988895;28;20587;-69
2022/11/24 06:15:36;;;;;;;56.10;25.10;;;;;;;-2.32;100.00;100233.22;4977479;28;20205;-70
2022/11/24 06:18:03;;;;;;;57.17;24.60;;;;;;;-2.35;100.00;100236.56;4985077;28;20225;-70
2022/11/24 06:20:29;;;;;;;61.30;27.20;;;;;;;-2.31;100.00;100234.94;4993619;28;20190;-70
2022/11/24 06:22:58;;;;;;;61.73;28.00;;;;;;;-2.30;100.00;100239.22;4975447;28;20209;-70
2022/11/24 06:25:26;;;;;;;57.60;25.57;;;;;;;-2.36;100.00;100239.94;4985799;28;20205;-70
2022/11/24 06:27:52;;;;;;;62.47;27.67;;;;;;;-2.35;100.00;100251.03;4990102;28;20216;-70
2022/11/24 06:30:19;;;;;;;56.80;26.27;;;;;;;-2.35;100.00;100261.25;4985173;28;20846;-70
2022/11/24 06:32:45;;;;;;;51.07;25.03;;;;;;;-2.40;100.00;100258.59;4984243;28;20325;-70
2022/11/24 06:35:12;;;;;;;51.20;24.83;;;;;;;-2.32;100.00;100248.56;4986598;28;20201;-70
2022/11/24 06:37:39;;;;;;;55.23;25.57;;;;;;;-2.39;100.00;100262.88;4987471;28;20223;-70
2022/11/24 06:40:08;;;;;;;49.43;23.43;;;;;;;-2.41;100.00;100263.66;4992794;28;20205;-70
2022/11/24 06:42:35;;;;;;;56.10;25.90;;;;;;;-2.40;100.00;100256.03;4991262;28;20695;-70
2022/11/24 06:45:01;;;;;;;52.00;25.13;;;;;;;-2.27;100.00;100262.25;4987045;28;20224;-70
2022/11/24 06:47:28;;;;;;;56.43;24.30;;;;;;;-2.23;100.00;100260.63;4986255;28;20300;-69
2022/11/24 06:49:54;;;;;;;59.87;28.53;;;;;;;-2.19;100.00;100270.09;4988413;28;20224;-69
2022/11/24 06:52:21;;;;;;;66.47;26.40;;;;;;;-2.16;100.00;100263.34;4993075;28;20216;-70
2022/11/24 06:54:47;;;;;;;59.67;25.53;;;;;;;-2.22;100.00;100262.34;5005280;28;20577;-69
2022/11/24 06:57:15;;;;;;;53.50;27.57;;;;;;;-2.17;100.00;100266.72;4984818;28;20245;-71
2022/11/24 06:59:41;;;;;;;71.60;29.27;;;;;;;-2.20;100.00;100270.91;4973141;28;20217;-70
2022/11/24 07:02:08;;;;;;;59.00;28.30;;;;;;;-2.11;100.00;100271.06;4982417;28;20425;-69
2022/11/24 07:04:35;;;;;;;52.97;28.47;;;;;;;-2.13;100.00;100272.75;4994869;28;20201;-71
2022/11/24 07:07:02;;;;;;;68.60;28.77;;;;;;;-2.10;100.00;100276.22;4982610;28;20210;-70
2022/11/24 07:09:28;;;;;;;63.10;28.70;;;;;;;-2.08;100.00;100285.63;4988091;28;20243;-69
2022/11/24 07:11:55;;;;;;;89.77;36.10;;;;;;;-2.05;100.00;100283.13;4970846;28;20288;-68
2022/11/24 07:14:23;;;;;;;67.90;29.83;;;;;;;-1.99;100.00;100285.78;4981431;28;20538;-70
2022/11/24 07:16:50;;;;;;;58.53;28.40;;;;;;;-1.98;100.00;100282.41;4985089;28;20193;-70
2022/11/24 07:19:16;;;;;;;59.97;27.80;;;;;;;-2.04;100.00;100282.28;4978225;28;20327;-70
2022/11/24 07:21:42;;;;;;;55.83;25.80;;;;;;;-1.92;100.00;100278.28;4980414;28;20205;-69
2022/11/24 07:24:09;;;;;;;60.53;26.67;;;;;;;-1.86;100.00;100287.75;4983322;28;20202;-70
2022/11/24 07:26:36;;;;;;;65.60;31.23;;;;;;;-1.86;100.00;100286.91;4975873;28;20643;-70
2022/11/24 07:29:02;;;;;;;88.17;36.27;;;;;;;-1.86;100.00;100294.59;4985546;28;20306;-70
2022/11/24 07:31:30;;;;;;;81.50;34.23;;;;;;;-1.76;100.00;100294.78;4965208;28;20205;-70
2022/11/24 07:33:57;;;;;;;79.97;32.93;;;;;;;-1.68;100.00;100294.91;4992408;28;20868;-71
2022/11/24 07:36:24;;;;;;;78.10;33.43;;;;;;;-1.65;100.00;100294.97;4991383;28;20199;-70
2022/11/24 07:38:51;;;;;;;66.80;29.67;;;;;;;-1.60;100.00;100302.72;5014882;28;20256;-69
2022/11/24 07:41:19;;;;;;;68.27;30.83;;;;;;;-1.52;100.00;100303.72;5009964;28;20219;-69
2022/11/24 07:43:46;;;;;;;66.57;31.07;;;;;;;-1.44;100.00;100299.63;4989074;28;20209;-70
2022/11/24 07:46:15;;;;;;;60.33;28.63;;;;;;;-1.41;100.00;100309.03;5004572;28;20669;-69
2022/11/24 07:48:43;;;;;;;54.77;27.00;;;;;;;-1.37;100.00;100314.22;4993350;28;20213;-70
2022/11/24 07:51:09;;;;;;;62.07;28.77;;;;;;;-1.29;100.00;100310.94;4987247;28;20263;-70
2022/11/24 07:53:37;;;;;;;51.53;24.90;;;;;;;-1.28;100.00;100317.78;4989648;28;20557;-71
2022/11/24 07:56:05;;;;;;;44.20;23.60;;;;;;;-1.26;100.00;100309.28;4972846;28;20633;-70
2022/11/24 07:58:33;;;;;;;44.20;22.67;;;;;;;-1.26;100.00;100306.72;4987772;28;20640;-70
2022/11/24 08:00:59;;;;;;;39.67;21.13;;;;;;;-1.20;100.00;100311.09;4997346;28;20201;-70
2022/11/24 08:03:26;;;;;;;38.23;20.90;;;;;;;-1.14;100.00;100316.31;4988260;28;20558;-69
2022/11/24 08:05:58;;;;;;;41.03;21.30;;;;;;;-1.08;100.00;100306.16;4970676;28;20661;-69
2022/11/24 08:08:25;;;;;;;43.07;22.40;;;;;;;-1.00;100.00;100314.00;4990844;28;20401;-70
2022/11/24 08:10:51;;;;;;;42.70;23.03;;;;;;;-0.94;100.00;100314.06;4970900;28;20689;-70
2022/11/24 08:13:18;;;;;;;44.93;22.83;;;;;;;-0.88;100.00;100314.19;4995033;28;20193;-70
2022/11/24 08:15:45;;;;;;;42.13;21.10;;;;;;;-0.83;100.00;100314.22;4986463;28;20210;-70
2022/11/24 08:18:11;;;;;;;45.70;23.20;;;;;;;-0.79;100.00;100319.44;4987852;28;20318;-69
2022/11/24 08:20:38;;;;;;;40.67;21.10;;;;;;;-0.74;100.00;100313.50;4991211;28;20246;-70
2022/11/24 08:23:05;;;;;;;42.30;22.60;;;;;;;-0.72;100.00;100314.38;4986336;28;20541;-70
2022/11/24 08:25:32;;;;;;;43.97;22.47;;;;;;;-0.70;100.00;100313.59;4988402;28;20209;-71
2022/11/24 08:27:59;;;;;;;39.13;21.90;;;;;;;-0.65;100.00;100321.31;4988591;28;20219;-71
2022/11/24 08:30:25;;;;;;;43.07;22.37;;;;;;;-0.60;100.00;100310.31;4991295;28;20198;-70
2022/11/24 08:32:52;;;;;;;43.03;23.17;;;;;;;-0.54;100.00;100316.38;4988610;28;20197;-69
2022/11/24 08:35:18;;;;;;;49.43;24.40;;;;;;;-0.48;100.00;100312.19;4992786;28;20207;-70
2022/11/24 08:37:44;;;;;;;50.10;21.67;;;;;;;-0.42;100.00;100309.72;4974068;28;20228;-70
2022/11/24 08:40:13;;;;;;;41.97;22.40;;;;;;;-0.35;100.00;100313.22;4993734;28;20280;-70
2022/11/24 08:42:39;;;;;;;43.37;22.77;;;;;;;-0.29;100.00;100309.88;4993685;28;20249;-70
2022/11/24 08:45:06;;;;;;;40.60;20.97;;;;;;;-0.24;100.00;100311.66;4990837;28;20739;-71
2022/11/24 08:47:33;;;;;;;45.63;22.70;;;;;;;-0.19;100.00;100319.41;4983839;28;20241;-71
2022/11/24 08:49:59;;;;;;;45.90;22.40;;;;;;;-0.13;100.00;100328.88;4986185;28;20607;-70
2022/11/24 08:52:25;;;;;;;46.33;22.90;;;;;;;-0.10;100.00;100331.47;4986080;28;20249;-71
2022/11/24 08:54:53;;;;;;;40.97;21.43;;;;;;;-0.03;100.00;100333.28;4988050;28;20652;-70
2022/11/24 08:57:20;;;;;;;44.30;21.73;;;;;;;0.02;100.00;100336.75;4983748;28;20224;-71
2022/11/24 08:59:47;;;;;;;49.43;22.57;;;;;;;0.10;100.00;100335.13;4991992;28;20210;-70
2022/11/24 09:02:13;;;;;;;45.80;22.30;;;;;;;0.11;100.00;100356.53;4990560;28;20209;-71
2022/11/24 09:04:39;;;;;;;46.90;23.87;;;;;;;0.15;100.00;100353.16;4987929;28;20212;-70
2022/11/24 09:07:06;;;;;;;51.83;25.53;;;;;;;0.20;100.00;100345.53;4985749;28;20207;-71
2022/11/24 09:09:32;;;;;;;49.77;25.10;;;;;;;0.26;100.00;100346.41;4990750;28;20244;-71
2022/11/24 09:11:59;;;;;;;51.17;24.50;;;;;;;0.34;100.00;100352.50;4973636;28;20589;-70
2022/11/24 09:14:26;;;;;;;53.77;25.23;;;;;;;0.42;100.00;100354.28;4992595;28;20200;-71
2022/11/24 09:16:53;;;;;;;49.93;22.63;;;;;;;0.50;100.00;100347.56;4993171;28;20193;-70
2022/11/24 09:19:19;;;;;;;47.63;22.60;;;;;;;0.60;100.00;100346.81;4993568;28;20216;-71
2022/11/24 09:21:45;;;;;;;42.23;22.07;;;;;;;0.71;100.00;100349.47;4988444;28;20200;-69
2022/11/24 09:24:12;;;;;;;46.33;24.40;;;;;;;0.82;100.00;100349.56;4990307;28;20225;-70
2022/11/24 09:26:39;;;;;;;49.23;22.97;;;;;;;0.89;100.00;100352.19;4994136;28;20675;-70
2022/11/24 09:29:06;;;;;;;43.70;22.10;;;;;;;1.00;100.00;100356.56;4991372;28;20221;-70
2022/11/24 09:31:36;;;;;;;46.10;24.27;;;;;;;1.07;100.00;100360.91;4972620;28;20209;-70
2022/11/24 09:34:04;;;;;;;44.83;22.57;;;;;;;1.15;100.00;100354.16;4993470;28;20524;-71
2022/11/24 09:36:31;;;;;;;49.10;22.53;;;;;;;1.21;100.00;100354.19;4995027;28;20266;-70
2022/11/24 09:38:58;;;;;;;42.87;20.83;;;;;;;1.29;100.00;100352.53;4995416;28;20305;-70
2022/11/24 09:41:42;;;;;;;48.63;24.03;;;;;;;1.37;100.00;100351.72;4997247;28;20267;-70
2022/11/24 09:44:36;;;;;;;49.10;23.20;;;;;;;1.44;100.00;100351.81;4993201;28;20570;-70
2022/11/24 09:47:12;;;;;;;42.83;19.40;;;;;;;1.52;100.00;100347.56;4988514;28;20241;-70
2022/11/24 09:49:46;;;;;;;40.07;18.97;;;;;;;1.59;100.00;100352.75;4994242;28;20564;-70
2022/11/24 09:52:20;;;;;;;37.63;19.03;;;;;;;1.67;100.00;100351.06;4992119;28;20197;-70
2022/11/24 09:54:53;;;;;;;45.13;21.47;;;;;;;1.72;100.00;100349.38;4995773;28;20209;-70
2022/11/24 09:57:24;;;;;;;45.57;20.63;;;;;;;1.77;100.00;100352.84;4991442;28;20673;-71
2022/11/24 09:59:50;;;;;;;39.97;17.93;;;;;;;1.79;100.00;100361.41;4995016;28;20588;-70
2022/11/24 10:02:18;;;;;;;39.13;20.93;;;;;;;1.82;100.00;100360.59;4989999;28;20561;-69
2022/11/24 10:04:46;;;;;;;42.10;21.27;;;;;;;1.84;100.00;100370.00;4970499;28;20224;-70
2022/11/24 10:07:22;;;;;;;34.80;18.50;;;;;;;1.86;100.00;100377.72;4991046;28;20205;-70
2022/11/24 10:09:59;;;;;;;39.83;18.00;;;;;;;1.87;100.00;100380.31;4979612;28;20661;-69
2022/11/24 10:12:49;;;;;;;36.73;17.80;;;;;;;1.91;100.00;100378.63;4988334;28;20204;-71
2022/11/24 10:15:26;;;;;;;34.00;18.37;;;;;;;1.94;100.00;100386.38;4995528;28;20280;-70
2022/11/24 10:18:14;;;;;;;33.50;17.90;;;;;;;1.98;100.00;100377.81;4987340;28;20227;-70
2022/11/24 10:20:52;;;;;;;34.50;16.90;;;;;;;2.04;100.00;100374.41;4982406;28;20202;-71
2022/11/24 10:23:34;;;;;;;31.67;15.77;;;;;;;2.08;100.00;100368.44;4973020;28;20216;-70
2022/11/24 10:26:04;;;;;;;32.20;15.03;;;;;;;2.15;100.00;100377.03;4989097;28;20201;-70
2022/11/24 10:28:39;;;;;;;36.83;16.97;;;;;;;2.22;100.00;100378.78;4989996;28;20229;-70
2022/11/24 10:31:21;;;;;;;49.00;22.17;;;;;;;2.25;100.00;100382.22;4987601;28;20223;-71
2022/11/24 10:33:50;;;;;;;37.07;17.80;;;;;;;2.30;100.00;100376.22;4994125;28;20220;-69
2022/11/24 10:36:23;;;;;;;31.83;16.20;;;;;;;2.33;100.00;100384.81;4991045;28;20220;-70
2022/11/24 10:38:56;;;;;;;29.67;14.43;;;;;;;2.38;100.00;100379.69;5011990;23;20228;-73
2022/11/24 10:41:39;;;;;;;28.03;14.23;;;;;;;2.41;100.00;100374.53;5004008;28;20580;-73
2022/11/24 10:44:12;;;;;;;30.93;15.03;;;;;;;2.46;100.00;100372.84;5002166;28;20661;-73
2022/11/24 10:46:39;;;;;;;27.83;14.70;;;;;;;2.53;100.00;100372.00;5005334;28;20734;-72
2022/11/24 10:49:08;;;;;;;30.87;14.50;;;;;;;2.58;100.00;100374.59;5000461;28;20202;-71
2022/11/24 10:51:46;;;;;;;30.30;14.20;;;;;;;2.63;100.00;100371.19;5002356;28;20201;-71
2022/11/24 10:54:17;;;;;;;29.77;13.97;;;;;;;2.70;100.00;100378.94;5000913;28;20451;-72
2022/11/24 10:56:46;;;;;;;27.07;14.77;;;;;;;2.69;100.00;100367.78;5005434;28;20251;-72
2022/11/24 10:59:30;;;;;;;35.50;14.87;;;;;;;2.78;100.00;100375.50;5002365;28;20220;-73
2022/11/24 11:01:58;;;;;;;24.50;14.33;;;;;;;2.81;100.00;100374.66;4999805;28;20258;-73
2022/11/24 11:04:29;;;;;;;30.37;14.87;;;;;;;2.86;100.00;100375.50;5003025;28;20203;-73
2022/11/24 11:07:19;;;;;;;29.80;14.93;;;;;;;2.92;100.00;100377.22;4986636;28;20206;-73
2022/11/24 11:09:46;;;;;;;29.60;14.40;;;;;;;2.96;100.00;100377.25;5002458;28;20668;-72